Time;durP1;ratioP1;P1;durP2;ratioP2;P2;SDS_P1;SDS_P2;PMS_P1;PMS_P2;Temp;Humidity;BMP_temperature;BMP_pressure;BME280_temperature;BME280_humidity;BME280_pressure;Samples;Min_cycle;Max_cycle;Signal;HPM_P1;HPM_P2
2022/08/01 00:01:53;;;;;;;6.68;4.50;;;;;;;;;;4991443;28;96963;-75
2022/08/01 00:04:20;;;;;;;8.05;4.70;;;;;;;;;;4975024;28;97193;-75
2022/08/01 00:06:46;;;;;;;9.93;4.88;;;;;;;;;;4974528;28;97613;-74
2022/08/01 00:09:12;;;;;;;8.48;4.80;;;;;;;;;;4973984;28;95587;-74
2022/08/01 00:11:49;;;;;;;9.50;4.70;;;;;;;;;;4975081;28;96836;-74
2022/08/01 00:14:25;;;;;;;8.90;4.93;;;;;;;;;;4982647;28;97657;-75
2022/08/01 00:16:58;;;;;;;8.25;4.63;;;;;;;;;;4976530;28;95341;-75
2022/08/01 00:19:32;;;;;;;9.10;4.90;;;;;;;;;;4974017;28;97748;-74
2022/08/01 00:21:58;;;;;;;8.27;5.22;;;;;;;;;;4973920;28;95353;-74
2022/08/01 00:24:24;;;;;;;13.70;5.18;;;;;;;;;;4971197;28;96853;-75
2022/08/01 00:26:51;;;;;;;9.48;5.05;;;;;;;;;;4972819;28;97303;-75
2022/08/01 00:29:17;;;;;;;9.63;5.03;;;;;;;;;;4971884;28;96221;-75
2022/08/01 00:32:04;;;;;;;11.00;5.00;;;;;;;;;;4962850;28;98616;-74
2022/08/01 00:34:31;;;;;;;7.57;4.40;;;;;;;;;;4978344;28;97472;-75
2022/08/01 00:36:57;;;;;;;11.68;4.70;;;;;;;;;;4972530;28;95432;-75
2022/08/01 00:39:24;;;;;;;8.02;4.57;;;;;;;;;;4984350;28;96882;-75
2022/08/01 00:41:50;;;;;;;8.85;4.28;;;;;;;;;;4989455;28;96512;-74
2022/08/01 00:44:25;;;;;;;9.02;4.50;;;;;;;;;;4984254;28;96922;-74
2022/08/01 00:46:51;;;;;;;8.65;4.75;;;;;;;;;;4971958;28;97397;-74
2022/08/01 00:49:17;;;;;;;9.13;4.38;;;;;;;;;;4973482;28;95213;-74
2022/08/01 00:51:44;;;;;;;8.15;4.95;;;;;;;;;;4977498;28;96773;-74
2022/08/01 00:54:10;;;;;;;11.20;5.07;;;;;;;;;;4988234;28;97723;-74
2022/08/01 00:56:38;;;;;;;11.30;5.07;;;;;;;;;;4975024;28;96982;-74
2022/08/01 00:59:05;;;;;;;14.80;5.15;;;;;;;;;;4977796;28;96699;-74
2022/08/01 01:01:31;;;;;;;10.13;5.18;;;;;;;;;;4977043;28;97374;-75
2022/08/01 01:04:04;;;;;;;12.27;5.35;;;;;;;;;;4986776;28;96924;-75
2022/08/01 01:06:33;;;;;;;9.70;4.80;;;;;;;;;;4979684;28;97264;-75
2022/08/01 01:09:32;;;;;;;12.77;5.63;;;;;;;;;;4976090;28;97838;-75
2022/08/01 01:12:10;;;;;;;9.75;5.03;;;;;;;;;;4967509;28;96979;-75
2022/08/01 01:14:48;;;;;;;13.27;4.85;;;;;;;;;;4987539;28;97400;-75
2022/08/01 01:17:17;;;;;;;10.63;5.30;;;;;;;;;;4984300;28;95980;-74
2022/08/01 01:20:05;;;;;;;10.27;5.22;;;;;;;;;;4992981;28;98041;-75
2022/08/01 01:22:51;;;;;;;10.82;5.72;;;;;;;;;;4978420;28;96695;-75
2022/08/01 01:25:33;;;;;;;11.35;5.75;;;;;;;;;;4973829;28;96730;-75
2022/08/01 01:28:08;;;;;;;11.15;5.93;;;;;;;;;;4975804;28;97348;-74
2022/08/01 01:30:36;;;;;;;13.90;5.82;;;;;;;;;;4976788;28;95390;-75
2022/08/01 01:33:05;;;;;;;10.73;5.97;;;;;;;;;;4965428;28;96797;-75
2022/08/01 01:35:33;;;;;;;12.98;6.15;;;;;;;;;;4979946;28;97654;-75
2022/08/01 01:38:04;;;;;;;12.15;6.40;;;;;;;;;;4973111;28;95367;-75
2022/08/01 01:40:31;;;;;;;11.80;6.43;;;;;;;;;;4972366;28;96914;-75
2022/08/01 01:42:57;;;;;;;15.75;7.03;;;;;;;;;;4972837;28;97479;-74
2022/08/01 01:45:25;;;;;;;14.35;7.20;;;;;;;;;;4982042;28;95799;-75
2022/08/01 01:47:52;;;;;;;15.75;6.75;;;;;;;;;;4990830;28;97404;-74
2022/08/01 01:50:23;;;;;;;21.58;7.07;;;;;;;;;;4990812;28;95284;-74
2022/08/01 01:52:50;;;;;;;14.07;6.60;;;;;;;;;;4961886;28;95717;-74
2022/08/01 01:55:18;;;;;;;17.77;7.00;;;;;;;;;;4986017;28;97236;-74
2022/08/01 01:57:45;;;;;;;14.18;6.95;;;;;;;;;;4960327;28;95354;-75
2022/08/01 02:00:13;;;;;;;15.38;7.05;;;;;;;;;;4990249;28;97651;-75
2022/08/01 02:02:40;;;;;;;14.43;7.03;;;;;;;;;;4971829;28;97431;-75
2022/08/01 02:05:08;;;;;;;13.93;7.45;;;;;;;;;;4978572;28;95407;-74
2022/08/01 02:07:36;;;;;;;14.07;7.65;;;;;;;;;;4956094;28;96694;-75
2022/08/01 02:10:04;;;;;;;17.58;6.82;;;;;;;;;;4952423;28;95210;-74
2022/08/01 02:12:32;;;;;;;17.70;7.53;;;;;;;;;;4956851;28;97276;-75
2022/08/01 02:14:59;;;;;;;20.80;7.93;;;;;;;;;;4966809;28;97558;-75
2022/08/01 02:17:26;;;;;;;18.13;7.95;;;;;;;;;;4952704;28;95463;-75
2022/08/01 02:19:53;;;;;;;15.27;7.68;;;;;;;;;;4972105;28;97024;-74
2022/08/01 02:22:25;;;;;;;15.10;7.45;;;;;;;;;;4969866;28;97441;-75
2022/08/01 02:24:54;;;;;;;17.30;7.53;;;;;;;;;;4977735;28;95368;-75
2022/08/01 02:27:37;;;;;;;16.90;7.60;;;;;;;;;;4971351;28;96879;-76
2022/08/01 02:30:06;;;;;;;15.73;7.78;;;;;;;;;;4970793;28;97426;-74
2022/08/01 02:32:41;;;;;;;17.80;7.55;;;;;;;;;;4972431;28;96952;-75
2022/08/01 02:35:10;;;;;;;16.67;7.65;;;;;;;;;;4981083;28;97639;-74
2022/08/01 02:37:38;;;;;;;16.35;7.80;;;;;;;;;;4957317;28;95236;-75
2022/08/01 02:40:11;;;;;;;17.98;8.40;;;;;;;;;;4972588;28;96714;-74
2022/08/01 02:42:42;;;;;;;18.67;7.90;;;;;;;;;;4971076;28;97451;-74
2022/08/01 02:45:09;;;;;;;18.30;7.93;;;;;;;;;;4977900;28;96791;-74
2022/08/01 02:47:37;;;;;;;16.67;7.82;;;;;;;;;;4989801;28;96847;-74
2022/08/01 02:50:04;;;;;;;14.18;7.13;;;;;;;;;;4954323;28;97430;-75
2022/08/01 02:52:31;;;;;;;15.38;7.00;;;;;;;;;;4994442;28;95424;-74
2022/08/01 02:54:58;;;;;;;14.57;6.80;;;;;;;;;;4985550;28;97434;-74
2022/08/01 02:57:26;;;;;;;13.45;6.90;;;;;;;;;;4978122;28;95442;-75
2022/08/01 03:00:13;;;;;;;14.35;6.68;;;;;;;;;;4971634;28;98699;-74
2022/08/01 03:02:42;;;;;;;16.25;7.03;;;;;;;;;;4972171;28;97616;-74
2022/08/01 03:05:12;;;;;;;13.90;6.25;;;;;;;;;;4970973;28;95973;-74
2022/08/01 03:07:39;;;;;;;12.88;5.70;;;;;;;;;;4991158;28;97274;-74
2022/08/01 03:10:08;;;;;;;11.23;6.03;;;;;;;;;;4974787;28;97753;-74
2022/08/01 03:12:36;;;;;;;13.05;6.13;;;;;;;;;;4961152;28;97156;-74
2022/08/01 03:15:03;;;;;;;13.63;5.90;;;;;;;;;;4978497;28;97169;-74
2022/08/01 03:17:31;;;;;;;12.02;6.28;;;;;;;;;;4992003;28;96034;-74
2022/08/01 03:19:58;;;;;;;10.63;5.50;;;;;;;;;;4974742;28;96637;-73
2022/08/01 03:22:25;;;;;;;10.95;6.20;;;;;;;;;;4993445;28;97671;-74
2022/08/01 03:24:53;;;;;;;12.38;6.28;;;;;;;;;;4983314;28;96863;-74
2022/08/01 03:27:20;;;;;;;12.75;6.03;;;;;;;;;;4983134;28;96232;-74
2022/08/01 03:29:48;;;;;;;10.73;5.93;;;;;;;;;;4994884;28;97400;-74
2022/08/01 03:32:15;;;;;;;11.48;6.25;;;;;;;;;;4995277;28;95367;-74
2022/08/01 03:34:42;;;;;;;15.88;7.18;;;;;;;;;;4991939;28;97026;-74
2022/08/01 03:37:19;;;;;;;12.57;6.53;;;;;;;;;;4957667;28;97392;-74
2022/08/01 03:39:48;;;;;;;12.93;6.70;;;;;;;;;;4970047;28;97130;-74
2022/08/01 03:42:17;;;;;;;13.77;6.95;;;;;;;;;;4955220;28;97616;-73
2022/08/01 03:44:47;;;;;;;13.95;6.53;;;;;;;;;;4960485;28;95479;-74
2022/08/01 03:47:15;;;;;;;13.07;6.90;;;;;;;;;;4965647;28;96931;-73
2022/08/01 03:49:42;;;;;;;15.23;6.85;;;;;;;;;;4973315;28;97697;-74
2022/08/01 03:52:09;;;;;;;14.55;6.68;;;;;;;;;;4975190;28;95470;-74
2022/08/01 03:54:38;;;;;;;14.82;6.30;;;;;;;;;;4964865;28;96883;-74
2022/08/01 03:57:05;;;;;;;12.35;6.93;;;;;;;;;;4985436;28;97537;-74
2022/08/01 03:59:31;;;;;;;11.32;6.82;;;;;;;;;;4983801;28;96797;-74
2022/08/01 04:01:58;;;;;;;14.90;6.88;;;;;;;;;;4993006;28;97385;-74
2022/08/01 04:04:25;;;;;;;13.88;6.88;;;;;;;;;;4968151;28;95486;-74
2022/08/01 04:06:54;;;;;;;13.98;6.88;;;;;;;;;;4965419;28;96795;-74
2022/08/01 04:09:21;;;;;;;13.18;6.88;;;;;;;;;;4954718;28;97713;-74
2022/08/01 04:11:48;;;;;;;14.18;6.15;;;;;;;;;;4966762;28;95392;-74
2022/08/01 04:14:14;;;;;;;12.07;6.50;;;;;;;;;;4967941;28;96843;-74
2022/08/01 04:16:41;;;;;;;12.23;6.75;;;;;;;;;;4982958;28;97735;-74
2022/08/01 04:19:07;;;;;;;15.88;7.30;;;;;;;;;;4997835;28;95241;-74
2022/08/01 04:21:34;;;;;;;13.15;6.88;;;;;;;;;;4990498;28;97432;-73
2022/08/01 04:24:06;;;;;;;13.52;6.75;;;;;;;;;;4985556;28;95383;-74
2022/08/01 04:26:34;;;;;;;13.30;6.82;;;;;;;;;;4988399;28;96933;-74
2022/08/01 04:29:01;;;;;;;15.70;7.03;;;;;;;;;;4957349;28;97406;-74
2022/08/01 04:31:28;;;;;;;17.25;7.00;;;;;;;;;;4976603;28;95398;-74
2022/08/01 04:33:59;;;;;;;13.38;6.40;;;;;;;;;;4970866;28;96830;-74
2022/08/01 04:36:26;;;;;;;14.38;7.18;;;;;;;;;;4992793;28;97348;-74
2022/08/01 04:38:55;;;;;;;12.90;6.93;;;;;;;;;;4994205;28;95368;-74
2022/08/01 04:41:22;;;;;;;15.98;7.15;;;;;;;;;;4977756;28;96877;-75
2022/08/01 04:43:48;;;;;;;13.48;6.78;;;;;;;;;;4967839;28;95361;-74
2022/08/01 04:46:15;;;;;;;12.27;7.00;;;;;;;;;;4979761;28;97055;-75
2022/08/01 04:48:42;;;;;;;13.70;7.30;;;;;;;;;;4993663;28;97437;-74
2022/08/01 04:51:13;;;;;;;13.20;7.28;;;;;;;;;;4993237;28;96103;-74
2022/08/01 04:53:39;;;;;;;16.27;7.45;;;;;;;;;;4958671;28;96913;-74
2022/08/01 04:56:06;;;;;;;13.88;6.63;;;;;;;;;;4978597;28;96933;-74
2022/08/01 04:58:32;;;;;;;11.23;6.50;;;;;;;;;;4972944;28;95458;-74
2022/08/01 05:00:58;;;;;;;12.60;6.60;;;;;;;;;;4987008;28;96860;-74
2022/08/01 20:03:06;;;;;;;13.02;1.70;;;;;;;;;;5028946;27;96938;-76
2022/08/01 20:05:33;;;;;;;11.13;1.60;;;;;;;;;;5007301;28;97684;-75
2022/08/01 20:08:00;;;;;;;11.13;1.52;;;;;;;;;;5006733;28;95418;-75
2022/08/01 20:10:29;;;;;;;11.98;1.50;;;;;;;;;;5008438;28;97382;-76
2022/08/01 20:12:56;;;;;;;4.47;1.85;;;;;;;;;;5005609;28;97692;-76
2022/08/01 20:15:23;;;;;;;7.13;1.70;;;;;;;;;;5008234;28;95133;-77
2022/08/01 20:17:49;;;;;;;4.15;1.92;;;;;;;;;;5005908;28;96417;-75
2022/08/01 20:20:16;;;;;;;8.30;2.13;;;;;;;;;;5006939;28;97306;-74
2022/08/01 20:22:42;;;;;;;6.57;2.60;;;;;;;;;;5009374;28;95412;-75
2022/08/01 20:25:09;;;;;;;8.23;2.08;;;;;;;;;;5007952;28;97236;-75
2022/08/01 20:27:37;;;;;;;9.13;2.63;;;;;;;;;;5006025;28;95388;-75
2022/08/01 20:30:05;;;;;;;11.30;2.05;;;;;;;;;;5006925;28;97515;-76
2022/08/01 20:32:32;;;;;;;7.25;2.13;;;;;;;;;;5006331;28;97386;-76
2022/08/01 20:35:00;;;;;;;5.55;1.98;;;;;;;;;;5008131;28;95176;-75
2022/08/01 20:37:27;;;;;;;15.93;2.72;;;;;;;;;;5008353;28;97041;-75
2022/08/01 20:40:13;;;;;;;9.43;2.80;;;;;;;;;;5008328;28;100283;-75
2022/08/01 20:42:40;;;;;;;8.43;3.50;;;;;;;;;;5006719;28;95834;-76
2022/08/01 20:45:06;;;;;;;7.50;3.75;;;;;;;;;;5005284;28;97202;-75
2022/08/01 20:47:33;;;;;;;9.70;4.15;;;;;;;;;;5007626;28;95357;-75
2022/08/01 20:53:05;;;;;;;9.93;4.65;;;;;;;;;;5007206;28;99116;-77
2022/08/01 20:55:43;;;;;;;9.10;3.38;;;;;;;;;;5005870;28;97383;-76
2022/08/01 20:58:14;;;;;;;5.28;2.72;;;;;;;;;;5008172;28;97213;-76
2022/08/01 21:00:41;;;;;;;8.27;3.15;;;;;;;;;;5007212;28;97992;-77
2022/08/01 21:03:14;;;;;;;10.70;2.78;;;;;;;;;;5025203;27;95245;-77
2022/08/01 21:05:42;;;;;;;10.57;2.60;;;;;;;;;;5009760;28;96832;-75
2022/08/01 21:08:34;;;;;;;5.38;2.45;;;;;;;;;;5013690;27;96793;-77
2022/08/01 21:11:01;;;;;;;6.85;2.75;;;;;;;;;;5026874;28;96829;-75
2022/08/01 21:13:36;;;;;;;8.80;2.40;;;;;;;;;;5016976;27;97913;-75
2022/08/01 21:16:05;;;;;;;9.25;2.80;;;;;;;;;;4991485;28;95348;-76
2022/08/01 21:18:53;;;;;;;5.68;2.60;;;;;;;;;;5009003;28;97209;-75
2022/08/01 21:21:47;;;;;;;13.00;2.60;;;;;;;;;;5012592;28;100352;-75
2022/08/01 21:24:17;;;;;;;9.70;3.55;;;;;;;;;;5011526;28;95403;-75
2022/08/01 21:26:45;;;;;;;11.43;3.53;;;;;;;;;;4993919;28;97193;-74
2022/08/01 21:29:12;;;;;;;8.40;3.65;;;;;;;;;;5010454;28;97365;-74
2022/08/01 21:31:39;;;;;;;14.63;3.60;;;;;;;;;;5015935;28;96502;-76
2022/08/01 21:34:07;;;;;;;8.63;3.75;;;;;;;;;;5011052;28;97910;-76
2022/08/01 21:36:34;;;;;;;15.52;3.47;;;;;;;;;;5013657;28;95648;-75
2022/08/01 21:39:01;;;;;;;5.90;3.58;;;;;;;;;;5014861;28;95814;-76
2022/08/01 21:41:29;;;;;;;10.55;3.13;;;;;;;;;;5014024;28;97751;-75
2022/08/01 21:44:17;;;;;;;6.10;3.70;;;;;;;;;;5011169;28;95265;-74
2022/08/01 21:46:45;;;;;;;9.75;4.25;;;;;;;;;;5011584;28;96529;-75
2022/08/01 21:49:12;;;;;;;8.50;4.25;;;;;;;;;;5013517;28;97611;-74
2022/08/01 21:51:45;;;;;;;9.77;4.82;;;;;;;;;;5012396;28;95425;-75
2022/08/01 21:54:20;;;;;;;10.52;4.70;;;;;;;;;;5016525;28;96558;-75
2022/08/01 21:56:58;;;;;;;12.00;4.15;;;;;;;;;;5014107;28;95498;-74
2022/08/01 21:59:28;;;;;;;13.38;4.50;;;;;;;;;;5014696;28;97188;-75
2022/08/01 22:01:54;;;;;;;9.00;3.92;;;;;;;;;;5012142;28;97615;-75
2022/08/01 22:04:26;;;;;;;7.25;2.70;;;;;;;;;;5012978;28;95898;-75
2022/08/01 22:06:54;;;;;;;8.18;2.97;;;;;;;;;;5014164;28;97675;-75
2022/08/01 22:09:20;;;;;;;5.57;2.25;;;;;;;;;;5014003;28;98248;-74
2022/08/01 22:11:47;;;;;;;7.10;2.42;;;;;;;;;;4988979;28;96121;-75
2022/08/01 22:14:28;;;;;;;5.30;2.40;;;;;;;;;;5011657;28;96415;-75
2022/08/01 22:16:56;;;;;;;8.70;2.58;;;;;;;;;;5016730;28;95472;-76
2022/08/01 22:19:22;;;;;;;6.82;2.85;;;;;;;;;;5013624;28;97263;-76
2022/08/01 22:22:09;;;;;;;7.47;3.35;;;;;;;;;;5011147;28;98923;-74
2022/08/01 22:24:56;;;;;;;7.45;3.08;;;;;;;;;;5011189;28;95456;-74
2022/08/01 22:27:23;;;;;;;10.43;3.05;;;;;;;;;;4995886;28;97451;-75
2022/08/01 22:30:11;;;;;;;8.55;3.22;;;;;;;;;;5013898;28;99607;-75
2022/08/01 22:32:39;;;;;;;8.50;3.05;;;;;;;;;;5012366;28;95192;-75
2022/08/01 22:35:07;;;;;;;6.68;3.10;;;;;;;;;;5012894;28;97293;-76
2022/08/01 22:37:34;;;;;;;9.73;3.33;;;;;;;;;;5016639;28;97676;-75
2022/08/01 22:40:21;;;;;;;17.35;3.55;;;;;;;;;;5013435;28;98472;-75
2022/08/01 22:42:50;;;;;;;9.23;3.53;;;;;;;;;;5011609;28;97604;-74
2022/08/01 22:45:21;;;;;;;7.10;3.10;;;;;;;;;;5011789;28;95116;-75
2022/08/01 22:47:53;;;;;;;6.80;3.15;;;;;;;;;;5013235;28;99807;-75
2022/08/01 22:50:24;;;;;;;5.38;3.20;;;;;;;;;;5013834;28;96603;-74
2022/08/01 22:53:14;;;;;;;5.45;3.17;;;;;;;;;;4991390;28;95277;-75
2022/08/01 22:55:43;;;;;;;9.48;3.72;;;;;;;;;;5011152;28;97568;-76
2022/08/01 22:58:29;;;;;;;8.45;4.18;;;;;;;;;;5012526;28;98006;-75
2022/08/01 23:00:58;;;;;;;7.85;3.65;;;;;;;;;;5015919;28;95546;-75
2022/08/01 23:03:31;;;;;;;11.77;4.50;;;;;;;;;;5005869;28;98047;-75
2022/08/01 23:05:57;;;;;;;11.25;4.53;;;;;;;;;;5013245;28;95190;-74
2022/08/01 23:08:24;;;;;;;9.35;3.90;;;;;;;;;;5012365;28;96180;-74
2022/08/01 23:10:52;;;;;;;7.38;3.70;;;;;;;;;;5013148;28;97329;-75
2022/08/01 23:13:19;;;;;;;8.30;3.72;;;;;;;;;;5012245;28;95355;-75
2022/08/01 23:15:46;;;;;;;9.85;3.97;;;;;;;;;;5010959;28;97179;-74
2022/08/01 23:18:19;;;;;;;9.20;4.40;;;;;;;;;;5012184;28;98236;-74
2022/08/01 23:20:45;;;;;;;12.00;4.80;;;;;;;;;;5013774;28;95739;-74
2022/08/01 23:23:13;;;;;;;7.70;4.50;;;;;;;;;;5013906;28;97036;-74
2022/08/01 23:25:42;;;;;;;9.35;4.68;;;;;;;;;;5012502;28;95473;-74
2022/08/01 23:28:10;;;;;;;13.65;5.50;;;;;;;;;;4995501;28;97089;-74
2022/08/01 23:30:36;;;;;;;10.45;5.22;;;;;;;;;;5012851;28;97239;-74
2022/08/01 23:33:03;;;;;;;9.40;5.05;;;;;;;;;;4995183;28;95432;-76
2022/08/01 23:35:30;;;;;;;11.50;5.82;;;;;;;;;;5010225;28;97459;-74
2022/08/01 23:38:00;;;;;;;8.02;4.85;;;;;;;;;;5012631;28;98153;-75
2022/08/01 23:40:29;;;;;;;10.57;5.25;;;;;;;;;;5012636;28;95399;-75
2022/08/01 23:42:56;;;;;;;8.27;5.03;;;;;;;;;;5012745;28;96844;-74
2022/08/01 23:45:22;;;;;;;11.13;5.22;;;;;;;;;;5012583;28;97939;-75
2022/08/01 23:47:49;;;;;;;9.50;5.03;;;;;;;;;;5012615;28;97469;-75
2022/08/01 23:50:16;;;;;;;9.80;5.07;;;;;;;;;;4994364;28;97856;-74
2022/08/01 23:52:42;;;;;;;10.52;5.25;;;;;;;;;;5012741;28;95463;-74
2022/08/01 23:55:16;;;;;;;11.18;4.85;;;;;;;;;;5008995;28;96752;-74
2022/08/01 23:57:42;;;;;;;16.45;5.38;;;;;;;;;;5011319;28;97011;-73
